Time;durP1;ratioP1;P1;durP2;ratioP2;P2;SDS_P1;SDS_P2;PMS_P1;PMS_P2;Temp;Humidity;BMP_temperature;BMP_pressure;BME280_temperature;BME280_humidity;BME280_pressure;Samples;Min_cycle;Max_cycle;Signal;HPM_P1;HPM_P2
2022/04/13 00:06:19;;;;;;;9.23;3.67;;;12.10;99.90;;;;;;20920430;28;20032;-83
2022/04/13 00:16:19;;;;;;;7.27;2.97;;;12.00;99.90;;;;;;20901300;28;20065;-81
2022/04/13 00:26:20;;;;;;;7.07;2.67;;;12.10;99.90;;;;;;20900767;28;20060;-82
2022/04/13 00:36:21;;;;;;;6.77;3.40;;;11.90;99.90;;;;;;20905695;28;20116;-81
2022/04/13 00:46:22;;;;;;;7.67;3.53;;;12.00;99.90;;;;;;20907346;28;20043;-82
2022/04/13 00:56:25;;;;;;;7.03;2.70;;;11.70;99.90;;;;;;20902561;28;20020;-81
2022/04/13 01:06:27;;;;;;;5.45;3.28;;;11.50;99.90;;;;;;20920696;28;20029;-82
2022/04/13 01:16:28;;;;;;;6.10;2.88;;;11.40;99.90;;;;;;20902228;28;20044;-81
2022/04/13 01:26:29;;;;;;;5.50;2.53;;;11.40;99.90;;;;;;20902247;28;20032;-82
2022/04/13 01:36:33;;;;;;;7.33;4.07;;;11.40;99.90;;;;;;20916641;28;20116;-81
2022/04/13 01:46:34;;;;;;;6.03;3.08;;;11.60;99.90;;;;;;20888110;28;20029;-82
2022/04/13 01:56:34;;;;;;;7.40;3.17;;;11.40;99.90;;;;;;20926772;28;20036;-81
2022/04/13 02:06:35;;;;;;;8.33;3.60;;;10.80;99.90;;;;;;21075583;22;20036;-75
2022/04/13 02:16:37;;;;;;;4.53;2.90;;;10.80;99.90;;;;;;21070823;28;20133;-74
2022/04/13 02:26:38;;;;;;;6.50;2.67;;;10.20;99.90;;;;;;21087610;28;20040;-74
2022/04/13 02:36:39;;;;;;;4.80;2.13;;;10.30;99.90;;;;;;21086941;28;20035;-75
2022/04/13 02:46:41;;;;;;;4.00;2.77;;;10.50;99.90;;;;;;21086096;28;20085;-74
2022/04/13 02:56:42;;;;;;;13.45;2.65;;;10.00;99.90;;;;;;21085608;28;20406;-74
2022/04/13 03:06:43;;;;;;;4.33;2.67;;;9.60;99.90;;;;;;21084239;28;20085;-74
2022/04/13 03:16:43;;;;;;;6.57;1.90;;;9.40;99.90;;;;;;21083675;28;20082;-74
2022/04/13 03:26:44;;;;;;;4.33;1.60;;;9.00;99.90;;;;;;21082617;28;20032;-74
2022/04/13 03:36:45;;;;;;;5.40;1.50;;;9.10;99.90;;;;;;21081769;28;20028;-74
2022/04/13 03:46:46;;;;;;;4.30;1.97;;;9.30;99.90;;;;;;21074377;28;20028;-75
2022/04/13 03:56:47;;;;;;;6.93;2.22;;;9.30;99.90;;;;;;21077767;28;20038;-75
2022/04/13 04:06:48;;;;;;;10.70;1.77;;;9.40;99.90;;;;;;21074961;28;20070;-74
2022/04/13 04:16:49;;;;;;;2.87;1.57;;;9.00;99.90;;;;;;21042085;28;20036;-74
2022/04/13 04:26:50;;;;;;;2.43;1.40;;;8.50;99.90;;;;;;21077935;28;20140;-75
2022/04/13 04:36:50;;;;;;;12.20;1.60;;;8.70;99.90;;;;;;21076015;28;20398;-74
2022/04/13 04:46:51;;;;;;;4.37;1.50;;;8.50;99.90;;;;;;21075723;28;20081;-74
2022/04/13 04:56:52;;;;;;;7.03;2.07;;;8.10;99.90;;;;;;21076163;28;20440;-74
2022/04/13 05:06:53;;;;;;;7.13;1.93;;;8.40;99.90;;;;;;21075307;28;20161;-74
2022/04/13 05:16:54;;;;;;;4.50;2.17;;;8.00;99.90;;;;;;21075079;28;20050;-74
2022/04/13 05:26:55;;;;;;;8.13;2.07;;;8.20;99.90;;;;;;21074384;28;20398;-74
2022/04/13 05:36:56;;;;;;;9.23;5.37;;;8.20;99.90;;;;;;21073863;28;20043;-74
2022/04/13 05:46:56;;;;;;;4.73;2.07;;;9.10;99.90;;;;;;21084603;28;20405;-74
2022/04/13 05:56:57;;;;;;;3.03;1.87;;;9.00;99.90;;;;;;21089222;28;20173;-75
2022/04/13 06:06:59;;;;;;;4.10;2.00;;;9.10;99.90;;;;;;21089162;28;20401;-75
2022/04/13 06:17:00;;;;;;;6.35;2.25;;;9.70;99.90;;;;;;21029683;28;20033;-75
2022/04/13 06:27:01;;;;;;;6.50;2.43;;;10.50;99.90;;;;;;20986110;28;20060;-75
2022/04/13 06:37:02;;;;;;;6.87;3.40;;;10.90;99.90;;;;;;21003979;28;20104;-75
2022/04/13 06:47:03;;;;;;;5.33;2.90;;;11.40;99.90;;;;;;20984467;28;20037;-75
2022/04/13 06:57:04;;;;;;;12.10;6.03;;;11.80;99.90;;;;;;21001024;28;20033;-75
2022/04/13 07:07:05;;;;;;;10.23;5.40;;;12.20;99.90;;;;;;21000664;28;20514;-75
2022/04/13 07:17:06;;;;;;;7.43;3.53;;;12.90;99.90;;;;;;21000049;28;20037;-74
2022/04/13 07:27:07;;;;;;;8.00;3.50;;;13.40;99.90;;;;;;20999553;28;20021;-76
2022/04/13 07:37:08;;;;;;;6.10;3.90;;;14.00;99.90;;;;;;20999287;28;20078;-76
2022/04/13 07:47:09;;;;;;;5.73;3.77;;;14.20;99.90;;;;;;20997884;28;20036;-75
2022/04/13 07:57:10;;;;;;;13.37;3.13;;;15.20;99.90;;;;;;20997107;28;20391;-75
2022/04/13 08:07:11;;;;;;;10.90;3.40;;;15.60;99.90;;;;;;20915255;23;20037;-76
2022/04/13 08:17:13;;;;;;;6.37;2.00;;;16.10;99.90;;;;;;20838621;28;20033;-75
2022/04/13 08:27:14;;;;;;;10.32;2.70;;;17.30;99.90;;;;;;20829951;28;20037;-76
2022/04/13 08:37:15;;;;;;;8.90;2.67;;;18.30;99.90;;;;;;20828882;28;20120;-75
2022/04/13 08:47:19;;;;;;;3.97;2.33;;;17.60;99.90;;;;;;20827879;28;20115;-75
2022/04/13 08:57:23;;;;;;;10.50;2.40;;;18.70;99.90;;;;;;20827452;28;20047;-75
2022/04/13 09:07:31;;;;;;;6.28;2.25;;;19.90;99.90;;;;;;20826451;28;20082;-75
2022/04/13 09:17:32;;;;;;;3.97;2.30;;;19.90;99.90;;;;;;20835502;28;20109;-75
2022/04/13 09:27:34;;;;;;;10.13;1.63;;;21.20;99.90;;;;;;20826326;28;20068;-75
2022/04/13 09:37:37;;;;;;;5.68;1.40;;;20.70;99.90;;;;;;20826052;28;20073;-77
2022/04/13 09:47:44;;;;;;;7.13;1.60;;;21.10;99.90;;;;;;20825362;28;20033;-76
2022/04/13 09:57:45;;;;;;;6.10;1.70;;;21.60;99.90;;;;;;20825045;28;20431;-77
2022/04/13 10:08:01;;;;;;;3.20;1.00;;;21.70;99.90;;;;;;20831814;28;20090;-76
2022/04/13 10:18:05;;;;;;;7.53;1.38;;;21.80;99.90;;;;;;20824397;28;20061;-76
2022/04/13 10:28:06;;;;;;;5.07;1.42;;;22.00;99.90;;;;;;20807797;28;20037;-78
2022/04/13 10:38:07;;;;;;;;;;;22.30;99.90;;;;;;20838636;28;20029;-77
2022/04/13 10:48:10;;;;;;;3.85;1.30;;;22.40;99.90;;;;;;20838563;28;19920;-78
2022/04/13 10:58:21;;;;;;;3.95;1.30;;;22.40;99.90;;;;;;20838343;28;20172;-77
2022/04/13 11:08:52;;;;;;;4.30;1.60;;;22.30;99.70;;;;;;20848837;28;20495;-77
2022/04/13 11:19:04;;;;;;;7.80;2.17;;;22.10;99.90;;;;;;20830927;28;20050;-78
2022/04/13 11:29:21;;;;;;;6.95;1.88;;;23.20;98.00;;;;;;20819718;28;20087;-78
2022/04/13 11:39:47;;;;;;;5.72;1.40;;;23.10;97.00;;;;;;20821841;28;20102;-78
2022/04/13 11:50:01;;;;;;;5.13;1.55;;;22.60;98.30;;;;;;20838223;28;20025;-78
2022/04/13 12:00:02;;;;;;;4.75;1.80;;;23.90;96.90;;;;;;20839734;28;20044;-78
2022/04/13 12:10:13;;;;;;;5.63;1.70;;;24.50;95.40;;;;;;20840279;28;20408;-78
2022/04/13 12:20:27;;;;;;;7.40;1.60;;;23.30;94.50;;;;;;20831418;28;20030;-78
2022/04/13 12:30:28;;;;;;;2.05;0.93;;;24.90;94.00;;;;;;20816549;28;20030;-77
2022/04/13 12:40:29;;;;;;;5.53;1.50;;;25.20;93.30;;;;;;20838456;28;20032;-77
2022/04/13 12:50:29;;;;;;;3.65;1.20;;;25.70;92.30;;;;;;20831833;28;20041;-76
2022/04/13 13:01:06;;;;;;;4.27;1.67;;;23.90;93.90;;;;;;20836194;28;20033;-78
2022/04/13 13:11:10;;;;;;;10.43;1.70;;;23.40;96.60;;;;;;20756720;28;20049;-78
2022/04/13 13:21:11;;;;;;;6.65;1.30;;;24.80;94.30;;;;;;20828109;28;20041;-78
2022/04/13 13:31:12;;;;;;;6.80;1.90;;;23.90;94.20;;;;;;20827890;28;20038;-78
2022/04/13 13:41:13;;;;;;;4.73;1.23;;;23.20;93.30;;;;;;20828974;28;20399;-79
2022/04/13 13:51:16;;;;;;;3.50;1.30;;;23.40;95.80;;;;;;20846134;28;20033;-79
2022/04/13 14:01:17;;;;;;;9.25;1.40;;;25.30;93.70;;;;;;20860633;22;20068;-76
2022/04/13 14:11:18;;;;;;;5.05;1.60;;;26.10;91.40;;;;;;20938833;28;20060;-75
2022/04/13 14:21:19;;;;;;;;;;;25.70;92.80;;;;;;20903904;28;20052;-76
2022/04/13 14:31:19;;;;;;;7.15;1.17;;;24.50;92.80;;;;;;20876926;28;19917;-75
2022/04/13 14:41:20;;;;;;;4.18;1.42;;;24.80;92.60;;;;;;20901359;28;20491;-75
2022/04/13 14:51:21;;;;;;;4.13;1.37;;;24.10;92.50;;;;;;20861149;28;20044;-75
2022/04/13 15:01:22;;;;;;;11.00;1.60;;;24.40;93.20;;;;;;20816726;28;20041;-74
2022/04/13 15:11:23;;;;;;;11.63;1.50;;;24.10;92.40;;;;;;20816365;28;20040;-74
2022/04/13 15:21:24;;;;;;;7.43;1.95;;;24.20;93.00;;;;;;20863832;28;20663;-74
2022/04/13 15:31:25;;;;;;;8.88;1.35;;;23.50;93.40;;;;;;20897631;28;20110;-74
2022/04/13 15:41:26;;;;;;;4.73;1.33;;;23.30;93.10;;;;;;20896777;28;20124;-74
2022/04/13 15:51:28;;;;;;;6.40;1.30;;;23.00;93.70;;;;;;20877861;28;20119;-73
2022/04/13 16:01:28;;;;;;;9.77;1.60;;;23.00;94.00;;;;;;20877159;28;20514;-74
2022/04/13 16:11:29;;;;;;;5.27;1.33;;;23.10;95.40;;;;;;20894008;28;20294;-74
2022/04/13 16:21:30;;;;;;;5.93;1.60;;;22.80;95.60;;;;;;20893118;28;20060;-74
2022/04/13 16:31:31;;;;;;;6.20;1.33;;;22.70;95.60;;;;;;20897592;28;20822;-74
2022/04/13 16:41:32;;;;;;;7.53;1.43;;;22.70;96.50;;;;;;20891805;28;20128;-74
2022/04/13 16:51:33;;;;;;;10.13;2.77;;;22.50;96.50;;;;;;20890186;28;20032;-75
2022/04/13 17:01:35;;;;;;;3.67;1.30;;;22.30;96.00;;;;;;20890329;28;20279;-75
2022/04/13 17:11:37;;;;;;;8.65;1.35;;;22.20;96.30;;;;;;20866224;28;20111;-74
2022/04/13 17:21:37;;;;;;;;;;;22.00;96.20;;;;;;20857091;28;20095;-73
2022/04/13 17:31:41;;;;;;;7.47;1.63;;;21.70;96.80;;;;;;20864018;28;20346;-73
2022/04/13 17:41:45;;;;;;;4.43;1.17;;;21.40;97.20;;;;;;20839184;28;20036;-74
2022/04/13 17:51:46;;;;;;;9.15;1.33;;;21.00;97.30;;;;;;20894044;28;20598;-75
2022/04/13 18:01:47;;;;;;;12.93;1.70;;;20.20;99.90;;;;;;20840123;28;20121;-75
2022/04/13 18:11:49;;;;;;;7.33;3.10;;;19.10;99.90;;;;;;20866012;28;20454;-75
2022/04/13 18:21:53;;;;;;;9.40;1.75;;;19.30;99.90;;;;;;20857907;28;20033;-76
2022/04/13 18:31:55;;;;;;;9.60;1.60;;;18.60;99.90;;;;;;20875316;28;20102;-76
2022/04/13 18:41:58;;;;;;;17.73;2.55;;;17.90;99.90;;;;;;20836890;28;20037;-76
2022/04/13 18:51:58;;;;;;;9.52;2.95;;;17.60;99.90;;;;;;20854161;28;20514;-76
2022/04/13 19:01:59;;;;;;;4.77;2.77;;;17.20;99.90;;;;;;20883497;28;20032;-76
2022/04/13 19:12:00;;;;;;;6.10;1.90;;;16.60;99.90;;;;;;20926407;28;20102;-75
2022/04/13 19:22:02;;;;;;;16.87;2.27;;;16.30;99.90;;;;;;20927907;28;20048;-77
2022/04/13 19:32:03;;;;;;;7.33;2.67;;;16.00;99.90;;;;;;20884190;28;20029;-75
2022/04/13 19:42:05;;;;;;;10.43;2.43;;;15.80;99.90;;;;;;20916423;28;20104;-75
2022/04/13 19:52:06;;;;;;;6.32;2.00;;;15.50;99.90;;;;;;20915141;28;20041;-75
2022/04/13 20:02:07;;;;;;;7.07;2.60;;;15.10;99.90;;;;;;20943350;22;20029;-75
2022/04/13 20:12:08;;;;;;;8.17;2.80;;;15.70;99.90;;;;;;20995330;28;20467;-75
2022/04/13 20:22:09;;;;;;;9.23;2.60;;;15.30;99.90;;;;;;20992987;28;20029;-75
2022/04/13 20:32:10;;;;;;;15.53;2.50;;;15.40;99.90;;;;;;20968417;28;20040;-75
2022/04/13 20:42:11;;;;;;;10.47;2.60;;;15.40;99.90;;;;;;20921157;28;20033;-74
2022/04/13 20:52:11;;;;;;;4.00;1.80;;;15.60;99.90;;;;;;20965906;28;20516;-74
2022/04/13 21:02:12;;;;;;;7.43;1.80;;;15.70;99.90;;;;;;20992298;28;20051;-74
2022/04/13 21:12:13;;;;;;;7.33;1.80;;;15.70;99.90;;;;;;20972182;28;20048;-74
2022/04/13 21:22:14;;;;;;;4.80;1.90;;;15.90;99.90;;;;;;20931554;28;20024;-74
2022/04/13 21:32:15;;;;;;;7.83;2.00;;;15.90;99.90;;;;;;20893375;28;20029;-74
2022/04/13 21:42:16;;;;;;;6.47;1.90;;;15.80;99.90;;;;;;20883401;28;20033;-74
2022/04/13 21:52:17;;;;;;;6.33;2.00;;;15.50;99.90;;;;;;20851964;28;20033;-75
2022/04/13 22:02:19;;;;;;;9.07;2.10;;;15.40;99.90;;;;;;20832408;28;20048;-75
2022/04/13 22:12:20;;;;;;;5.55;1.77;;;14.80;99.90;;;;;;20869718;28;20391;-74
2022/04/13 22:22:20;;;;;;;7.60;2.07;;;14.30;99.90;;;;;;20866048;28;20078;-74
2022/04/13 22:32:21;;;;;;;5.93;1.70;;;13.70;99.90;;;;;;20921803;28;20028;-74
2022/04/13 22:42:22;;;;;;;14.63;2.20;;;13.70;99.90;;;;;;21012341;28;20024;-75
2022/04/13 22:52:23;;;;;;;13.63;3.57;;;13.40;99.90;;;;;;20969740;28;20029;-75
2022/04/13 23:02:24;;;;;;;7.57;2.20;;;13.20;99.90;;;;;;20896634;28;20036;-75
2022/04/13 23:12:25;;;;;;;7.13;2.40;;;13.20;99.90;;;;;;20917045;28;20446;-75
2022/04/13 23:22:26;;;;;;;10.30;2.57;;;13.10;99.90;;;;;;20928154;28;20507;-78
2022/04/13 23:32:26;;;;;;;10.10;2.60;;;12.70;99.90;;;;;;20903009;28;20110;-78
2022/04/13 23:42:27;;;;;;;12.57;2.70;;;12.70;99.90;;;;;;20920000;28;20582;-78
2022/04/13 23:52:28;;;;;;;8.47;2.43;;;12.50;99.90;;;;;;20896953;28;20025;-79
